createdAt,value
2023-02-20T00:00:28.818Z,19.42
2023-02-20T00:02:55.444Z,26.63
2023-02-20T00:05:22.377Z,19.55
2023-02-20T00:07:49.179Z,20.98
2023-02-20T00:10:17.324Z,21.92
2023-02-20T00:12:43.968Z,19.23
2023-02-20T00:15:13.781Z,20.33
2023-02-20T00:17:42.864Z,20.30
2023-02-20T00:20:09.826Z,22.88
2023-02-20T00:22:36.428Z,18.10
2023-02-20T00:25:03.189Z,20.27
2023-02-20T00:27:29.680Z,17.38
2023-02-20T00:29:56.253Z,16.90
2023-02-20T00:32:22.870Z,19.63
2023-02-20T00:34:49.446Z,17.02
2023-02-20T00:37:15.955Z,16.55
2023-02-20T00:39:42.532Z,18.75
2023-02-20T00:42:09.718Z,18.58
2023-02-20T00:44:38.917Z,19.67
2023-02-20T00:47:06.446Z,18.75
2023-02-20T00:49:33.049Z,19.65
2023-02-20T00:52:09.092Z,17.08
2023-02-20T00:54:35.628Z,17.98
2023-02-20T00:57:02.180Z,17.17
2023-02-20T00:59:28.744Z,14.48
2023-02-20T01:01:55.732Z,18.92
2023-02-20T01:04:22.532Z,16.48
2023-02-20T01:06:49.172Z,17.02
2023-02-20T01:09:15.779Z,15.00
2023-02-20T01:11:43.948Z,15.57
2023-02-20T01:14:11.267Z,15.90
2023-02-20T01:16:43.225Z,17.58
2023-02-20T01:19:09.872Z,11.25
2023-02-20T01:21:36.414Z,17.42
2023-02-20T01:24:03.061Z,15.25
2023-02-20T01:26:29.855Z,19.58
2023-02-20T01:28:56.587Z,16.95
2023-02-20T01:31:23.479Z,16.73
2023-02-20T01:33:50.197Z,18.83
2023-02-20T01:36:16.769Z,17.77
2023-02-20T01:38:43.573Z,20.35
2023-02-20T01:41:11.772Z,18.27
2023-02-20T01:43:38.509Z,21.25
2023-02-20T01:46:23.444Z,23.08
2023-02-20T01:48:50.481Z,23.27
2023-02-20T01:51:17.456Z,22.17
2023-02-20T01:53:44.109Z,21.10
2023-02-20T01:56:12.576Z,20.77
2023-02-20T01:58:50.243Z,22.38
2023-02-20T02:01:17.137Z,23.08
2023-02-20T02:03:48.867Z,18.33
2023-02-20T02:06:16.288Z,24.30
2023-02-20T02:08:45.203Z,24.60
2023-02-20T02:11:22.844Z,22.30
2023-02-20T02:13:49.826Z,17.65
2023-02-20T02:16:49.219Z,20.25
2023-02-20T02:19:37.648Z,21.70
2023-02-20T02:22:40.792Z,23.35
2023-02-20T02:25:33.382Z,20.15
2023-02-20T02:28:14.976Z,27.23
2023-02-20T02:31:03.339Z,23.08
2023-02-20T02:33:32.763Z,23.98
2023-02-20T02:36:17.528Z,22.98
2023-02-20T02:39:02.909Z,21.27
2023-02-20T02:41:42.640Z,20.20
2023-02-20T02:44:30.434Z,28.30
2023-02-20T02:47:07.635Z,18.88
2023-02-20T02:49:43.495Z,21.10
2023-02-20T02:52:12.317Z,26.50
2023-02-20T02:54:39.793Z,21.85
2023-02-20T02:57:26.709Z,33.67
2023-02-20T03:00:00.411Z,28.45
2023-02-20T03:02:31.437Z,26.95
2023-02-20T03:05:00.745Z,19.17
2023-02-20T03:07:28.690Z,23.67
2023-02-20T03:10:02.937Z,23.77
2023-02-20T03:12:40.640Z,26.52
2023-02-20T03:15:33.444Z,28.10
2023-02-20T03:18:10.924Z,31.98
2023-02-20T03:20:44.238Z,33.67
2023-02-20T03:23:15.577Z,38.10
2023-02-20T03:25:52.857Z,27.70
2023-02-20T03:28:32.449Z,31.50
2023-02-20T03:31:12.608Z,31.98
2023-02-20T03:34:24.306Z,33.55
2023-02-20T03:37:19.510Z,36.38
2023-02-20T03:40:09.621Z,37.47
2023-02-20T03:42:59.396Z,42.25
2023-02-20T03:45:35.779Z,39.10
2023-02-20T03:48:12.300Z,38.03
2023-02-20T03:50:57.424Z,38.90
2023-02-20T03:53:27.580Z,34.72
2023-02-20T03:55:58.021Z,35.42
2023-02-20T03:58:31.346Z,37.85
2023-02-20T04:01:03.777Z,35.00
2023-02-20T04:03:36.744Z,46.40
2023-02-20T04:06:06.380Z,42.50
2023-02-20T04:08:38.496Z,37.53
2023-02-20T04:11:11.359Z,40.50
2023-02-20T04:13:39.664Z,37.45
2023-02-20T04:16:07.976Z,37.20
2023-02-20T04:18:35.838Z,39.45
2023-02-20T04:21:09.143Z,42.25
2023-02-20T04:23:45.328Z,36.28
2023-02-20T04:26:18.511Z,39.17
2023-02-20T04:28:47.669Z,43.08
2023-02-20T04:31:18.344Z,42.28
2023-02-20T04:33:47.094Z,40.50
2023-02-20T04:36:19.325Z,41.67
2023-02-20T04:38:46.197Z,41.90
2023-02-20T04:41:16.025Z,48.80
2023-02-20T04:43:42.699Z,42.17
2023-02-20T04:46:10.090Z,44.10
2023-02-20T04:48:36.999Z,42.72
2023-02-20T04:51:04.185Z,43.10
2023-02-20T04:53:32.645Z,41.90
2023-02-20T04:55:59.418Z,44.03
2023-02-20T04:58:26.974Z,49.80
2023-02-20T05:01:07.853Z,47.67
2023-02-20T05:03:34.385Z,45.78
2023-02-20T05:06:00.895Z,53.05
2023-02-20T05:08:31.310Z,46.47
2023-02-20T05:10:57.903Z,54.15
2023-02-20T05:13:24.451Z,46.88
2023-02-20T05:15:51.121Z,47.00
2023-02-20T05:18:28.160Z,50.65
2023-02-20T05:21:13.234Z,46.25
2023-02-20T05:23:39.868Z,52.67
2023-02-20T05:26:16.670Z,49.47
2023-02-20T05:28:43.384Z,49.35
2023-02-20T05:31:10.026Z,43.88
2023-02-20T05:33:36.782Z,41.88
2023-02-20T05:36:04.049Z,43.90
2023-02-20T05:38:30.661Z,41.35
2023-02-20T05:40:57.383Z,46.63
2023-02-20T05:43:23.889Z,43.47
2023-02-20T05:45:50.437Z,54.85
2023-02-20T05:48:16.994Z,43.42
2023-02-20T05:50:43.654Z,42.90
2023-02-20T05:53:17.325Z,49.65
2023-02-20T05:55:43.995Z,42.22
2023-02-20T05:58:10.676Z,42.63
2023-02-20T06:00:37.281Z,44.90
2023-02-20T06:03:07.645Z,44.80
2023-02-20T06:05:34.211Z,43.03
2023-02-20T06:08:00.847Z,42.97
2023-02-20T06:10:27.633Z,42.03
2023-02-20T06:12:54.271Z,43.47
2023-02-20T06:15:20.864Z,40.67
2023-02-20T06:17:47.465Z,40.30
2023-02-20T06:20:14.781Z,35.83
2023-02-20T06:22:41.754Z,40.47
2023-02-20T06:25:08.382Z,37.47
2023-02-20T06:27:34.913Z,39.00
2023-02-20T06:30:01.541Z,37.25
2023-02-20T06:32:28.179Z,34.15
2023-02-20T06:34:54.803Z,39.40
2023-02-20T06:37:21.405Z,37.97
2023-02-20T06:39:49.281Z,35.28
2023-02-20T06:42:16.239Z,37.00
2023-02-20T06:44:42.910Z,35.78
2023-02-20T06:47:09.504Z,41.13
2023-02-20T06:49:36.704Z,39.90
2023-02-20T06:52:05.089Z,31.65
2023-02-20T06:54:32.168Z,30.38
2023-02-20T06:56:59.337Z,32.25
2023-02-20T06:59:25.920Z,36.17
2023-02-20T07:01:52.791Z,30.90
2023-02-20T07:04:22.238Z,37.30
2023-02-20T07:06:48.865Z,36.58
2023-02-20T07:09:16.176Z,35.92
2023-02-20T07:11:43.435Z,31.85
2023-02-20T07:14:10.177Z,37.10
2023-02-20T07:16:36.757Z,27.95
2023-02-20T07:19:03.368Z,32.47
2023-02-20T07:21:29.988Z,33.05
2023-02-20T07:23:56.623Z,27.95
2023-02-20T07:26:26.296Z,34.25
2023-02-20T07:28:54.933Z,32.63
2023-02-20T07:31:22.020Z,32.15
2023-02-20T07:33:48.738Z,32.10
2023-02-20T07:36:16.340Z,32.35
2023-02-20T07:38:43.530Z,33.72
2023-02-20T07:41:10.576Z,39.15
2023-02-20T07:43:37.152Z,35.97
2023-02-20T07:46:05.092Z,32.83
2023-02-20T07:48:31.748Z,39.50
2023-02-20T07:50:58.306Z,39.05
2023-02-20T07:53:24.862Z,40.80
2023-02-20T07:55:51.398Z,38.85
2023-02-20T07:58:17.922Z,38.20
2023-02-20T08:00:44.472Z,43.33
2023-02-20T08:03:11.046Z,36.63
2023-02-20T08:05:48.669Z,39.45
2023-02-20T08:08:15.993Z,37.80
2023-02-20T08:10:42.543Z,36.20
2023-02-20T08:13:09.217Z,41.53
2023-02-20T08:15:35.856Z,39.00
2023-02-20T08:18:03.321Z,39.20
2023-02-20T08:20:30.987Z,45.10
2023-02-20T08:23:00.634Z,39.28
2023-02-20T08:25:27.307Z,39.20
2023-02-20T08:27:53.859Z,36.05
2023-02-20T08:30:24.834Z,37.63
2023-02-20T08:32:52.548Z,38.20
2023-02-20T08:35:19.967Z,38.78
2023-02-20T08:37:46.765Z,32.83
2023-02-20T08:40:14.123Z,38.65
2023-02-20T08:42:40.699Z,38.63
2023-02-20T08:45:08.696Z,41.97
2023-02-20T08:47:35.521Z,36.88
2023-02-20T08:50:02.360Z,43.28
2023-02-20T08:52:28.959Z,36.85
2023-02-20T08:54:55.563Z,36.65
2023-02-20T08:57:22.175Z,36.40
2023-02-20T08:59:48.727Z,43.78
2023-02-20T09:02:21.994Z,42.75
2023-02-20T09:04:49.242Z,37.63
2023-02-20T09:07:15.913Z,38.85
2023-02-20T09:09:42.745Z,40.55
2023-02-20T09:12:09.976Z,32.42
2023-02-20T09:14:37.283Z,41.13
2023-02-20T09:17:05.024Z,37.25
2023-02-20T09:19:32.250Z,39.53
2023-02-20T09:21:58.788Z,38.95
2023-02-20T09:24:25.466Z,37.50
2023-02-20T09:26:52.019Z,35.45
2023-02-20T09:29:18.549Z,42.15
2023-02-20T09:31:45.164Z,36.85
2023-02-20T09:34:11.714Z,39.08
2023-02-20T09:36:38.246Z,35.92
2023-02-20T09:39:04.779Z,35.55
2023-02-20T09:42:01.770Z,36.75
2023-02-20T09:44:52.653Z,40.38
2023-02-20T09:47:25.617Z,35.78
2023-02-20T09:49:53.580Z,33.92
2023-02-20T09:52:20.544Z,35.15
2023-02-20T09:54:54.373Z,37.72
2023-02-20T09:57:28.036Z,35.42
2023-02-20T10:00:04.044Z,34.90
2023-02-20T10:02:37.954Z,40.83
2023-02-20T10:05:18.944Z,32.63
2023-02-20T10:07:46.742Z,36.97
2023-02-20T10:10:34.270Z,32.00
2023-02-20T10:13:29.079Z,32.42
2023-02-20T10:16:03.298Z,33.45
2023-02-20T10:18:32.759Z,34.88
2023-02-20T10:21:16.562Z,33.67
2023-02-20T10:24:03.783Z,33.03
2023-02-20T10:26:43.559Z,31.75
2023-02-20T10:29:28.900Z,34.55
2023-02-20T10:32:03.419Z,33.83
2023-02-20T10:34:43.401Z,30.80
2023-02-20T10:37:21.198Z,33.75
2023-02-20T10:40:01.059Z,34.00
2023-02-20T10:42:43.747Z,32.17
2023-02-20T10:45:32.961Z,31.63
2023-02-20T10:48:07.080Z,33.53
2023-02-20T10:50:45.845Z,31.40
2023-02-20T10:53:41.372Z,36.28
2023-02-20T10:56:13.520Z,34.78
2023-02-20T10:59:00.540Z,34.25
2023-02-20T11:01:27.569Z,37.88
2023-02-20T11:04:48.563Z,36.38
2023-02-20T11:07:39.031Z,33.50
2023-02-20T11:10:06.370Z,32.63
2023-02-20T11:12:44.992Z,31.17
2023-02-20T11:15:18.385Z,36.80
2023-02-20T11:17:46.311Z,28.05
2023-02-20T11:20:52.586Z,32.17
2023-02-20T11:23:37.214Z,28.98
2023-02-20T11:26:21.676Z,31.70
2023-02-20T11:29:06.796Z,32.67
2023-02-20T11:31:34.863Z,28.58
2023-02-20T11:34:04.141Z,28.95
2023-02-20T11:36:42.064Z,31.23
2023-02-20T11:39:22.757Z,28.58
2023-02-20T11:42:05.172Z,36.13
2023-02-20T11:44:31.865Z,27.65
2023-02-20T11:47:22.916Z,30.75
2023-02-20T11:49:50.312Z,32.22
2023-02-20T11:52:22.483Z,27.40
2023-02-20T11:55:10.378Z,29.73
2023-02-20T11:57:44.023Z,31.05
2023-02-20T12:00:17.559Z,28.77
2023-02-20T12:03:12.282Z,25.88
2023-02-20T12:05:40.145Z,29.02
2023-02-20T12:08:28.475Z,28.13
2023-02-20T12:11:03.582Z,30.20
2023-02-20T12:13:34.483Z,28.30
2023-02-20T12:16:23.030Z,27.70
2023-02-20T12:18:58.564Z,31.25
2023-02-20T12:21:34.990Z,22.30
2023-02-20T12:24:09.472Z,31.50
2023-02-20T12:26:44.505Z,28.80
2023-02-20T12:29:45.988Z,36.10
2023-02-20T12:32:34.038Z,27.23
2023-02-20T12:35:25.630Z,31.65
2023-02-20T12:37:55.051Z,27.33
2023-02-20T12:40:59.762Z,27.27
2023-02-20T12:43:39.198Z,22.67
2023-02-20T12:46:12.200Z,21.35
2023-02-20T12:49:00.346Z,19.73
2023-02-20T12:52:22.379Z,24.10
2023-02-20T12:54:59.171Z,26.50
2023-02-20T12:57:37.801Z,22.00
2023-02-20T13:00:22.028Z,20.70
2023-02-20T13:02:51.525Z,25.35
2023-02-20T13:05:23.194Z,25.10
2023-02-20T13:08:01.563Z,21.63
2023-02-20T13:10:33.518Z,26.10
2023-02-20T13:13:00.849Z,26.60
2023-02-20T13:15:48.456Z,23.58
2023-02-20T13:18:35.672Z,20.48
2023-02-20T13:21:06.754Z,23.77
2023-02-20T13:23:40.011Z,26.98
2023-02-20T13:26:26.491Z,22.58
2023-02-20T13:28:54.125Z,22.67
2023-02-20T13:31:34.215Z,20.60
2023-02-20T13:34:06.740Z,20.58
2023-02-20T13:39:21.137Z,25.25
2023-02-20T13:41:53.998Z,21.33
2023-02-20T13:44:29.800Z,24.00
2023-02-20T13:47:22.224Z,34.15
2023-02-20T13:49:58.116Z,26.02
2023-02-20T13:54:55.758Z,26.60
2023-02-20T13:57:23.547Z,29.75
2023-02-20T13:59:52.553Z,26.52
2023-02-20T14:02:24.230Z,23.25
2023-02-20T14:05:05.975Z,23.02
2023-02-20T14:07:44.444Z,27.27
2023-02-20T14:10:33.980Z,22.63
2023-02-20T14:13:12.477Z,26.35
2023-02-20T14:15:55.080Z,28.45
2023-02-20T14:18:26.426Z,22.95
2023-02-20T14:20:59.226Z,23.25
2023-02-20T14:23:28.989Z,21.58
2023-02-20T14:26:01.338Z,23.75
2023-02-20T14:28:33.302Z,19.83
2023-02-20T14:31:04.243Z,19.30
2023-02-20T14:33:33.136Z,19.80
2023-02-20T14:36:24.056Z,24.70
2023-02-20T14:38:59.510Z,17.38
2023-02-20T14:41:26.345Z,19.90
2023-02-20T14:44:04.944Z,19.38
2023-02-20T14:46:34.742Z,14.48
2023-02-20T14:49:33.542Z,17.58
2023-02-20T14:52:19.876Z,18.52
2023-02-20T14:55:00.772Z,19.27
2023-02-20T14:57:28.359Z,23.52
2023-02-20T15:00:17.221Z,18.92
2023-02-20T15:02:51.066Z,22.58
2023-02-20T15:05:26.068Z,17.52
2023-02-20T15:08:01.127Z,18.67
2023-02-20T15:10:36.127Z,20.98
2023-02-20T15:13:32.504Z,24.60
2023-02-20T15:16:08.027Z,17.70
2023-02-20T15:18:47.755Z,17.73
2023-02-20T15:21:32.361Z,18.00
2023-02-20T15:24:13.764Z,22.50
2023-02-20T15:26:40.515Z,19.70
2023-02-20T15:29:33.403Z,21.38
2023-02-20T15:32:26.298Z,20.83
2023-02-20T15:34:57.089Z,18.25
2023-02-20T15:37:38.718Z,20.48
2023-02-20T15:40:32.072Z,18.70
2023-02-20T15:43:04.299Z,19.52
2023-02-20T15:45:31.702Z,19.75
2023-02-20T15:47:58.775Z,18.35
2023-02-20T15:50:27.267Z,17.70
2023-02-20T15:52:54.782Z,16.50
2023-02-20T15:55:23.566Z,21.48
2023-02-20T15:57:54.846Z,18.38
2023-02-20T16:00:26.858Z,21.50
2023-02-20T16:02:54.535Z,19.98
2023-02-20T16:05:21.230Z,17.58
2023-02-20T16:07:48.409Z,13.93
2023-02-20T16:10:18.572Z,18.38
2023-02-20T16:12:46.958Z,16.15
2023-02-20T16:15:18.006Z,15.50
2023-02-20T16:17:44.673Z,16.45
2023-02-20T16:20:17.275Z,13.20
2023-02-20T16:25:12.961Z,16.25
2023-02-20T16:27:39.509Z,17.02
2023-02-20T16:30:07.567Z,15.82
2023-02-20T16:32:34.196Z,16.73
2023-02-20T16:35:01.748Z,34.97
2023-02-20T16:37:29.120Z,39.42
2023-02-20T16:39:55.790Z,31.63
2023-02-20T16:42:34.658Z,48.13
2023-02-20T16:45:14.000Z,31.63
2023-02-20T16:47:41.365Z,33.20
2023-02-20T16:50:13.146Z,48.53
2023-02-20T16:52:41.344Z,26.50
2023-02-20T16:55:19.471Z,35.92
2023-02-20T16:57:46.298Z,30.17
2023-02-20T17:00:16.077Z,19.33
2023-02-20T17:02:43.178Z,24.38
2023-02-20T17:05:09.873Z,31.17
2023-02-20T17:07:37.194Z,22.65
2023-02-20T17:10:05.437Z,24.92
2023-02-20T17:12:33.933Z,23.25
2023-02-20T17:15:01.459Z,21.55
2023-02-20T17:17:28.113Z,15.68
2023-02-20T17:19:58.002Z,18.15
2023-02-20T17:22:26.442Z,15.38
2023-02-20T17:24:54.568Z,15.32
2023-02-20T17:27:22.083Z,18.50
2023-02-20T17:29:48.902Z,19.52
2023-02-20T17:32:15.780Z,16.05
2023-02-20T17:34:42.791Z,15.93
2023-02-20T17:37:09.881Z,16.05
2023-02-20T17:39:37.355Z,15.82
2023-02-20T17:42:04.194Z,17.98
2023-02-20T17:44:31.026Z,15.43
2023-02-20T17:46:59.459Z,19.75
2023-02-20T17:49:27.245Z,17.95
2023-02-20T17:51:58.457Z,13.85
2023-02-20T17:54:25.404Z,11.63
2023-02-20T17:56:52.373Z,14.85
2023-02-20T17:59:19.414Z,14.13
2023-02-20T18:01:45.984Z,18.35
2023-02-20T18:04:13.200Z,14.60
2023-02-20T18:06:40.320Z,12.93
2023-02-20T18:09:09.070Z,16.50
2023-02-20T18:11:36.513Z,14.32
2023-02-20T18:14:03.081Z,17.25
2023-02-20T18:16:29.967Z,12.60
2023-02-20T18:18:56.809Z,18.42
2023-02-20T18:21:28.893Z,19.48
2023-02-20T18:23:56.429Z,11.80
2023-02-20T18:26:23.846Z,20.73
2023-02-20T18:28:50.384Z,15.07
2023-02-20T18:31:18.283Z,17.05
2023-02-20T18:33:45.401Z,18.92
2023-02-20T18:36:12.367Z,23.77
2023-02-20T18:38:39.092Z,18.23
2023-02-20T18:41:07.393Z,21.45
2023-02-20T18:43:34.186Z,22.83
2023-02-20T18:46:01.979Z,20.48
2023-02-20T18:48:28.874Z,22.95
2023-02-20T18:50:55.681Z,21.25
2023-02-20T18:53:22.417Z,23.20
2023-02-20T18:55:48.972Z,25.92
2023-02-20T18:58:15.568Z,25.67
2023-02-20T19:00:42.285Z,17.92
2023-02-20T19:03:08.912Z,22.15
2023-02-20T19:05:35.547Z,20.02
2023-02-20T19:08:06.769Z,16.83
2023-02-20T19:10:33.394Z,17.27
2023-02-20T19:13:00.041Z,23.92
2023-02-20T19:15:26.845Z,19.95
2023-02-20T19:17:55.007Z,21.65
2023-02-20T19:20:28.905Z,17.85
2023-02-20T19:22:57.242Z,18.63
2023-02-20T19:25:24.068Z,19.17
2023-02-20T19:27:50.805Z,22.63
2023-02-20T19:30:18.021Z,26.63
2023-02-20T19:32:44.687Z,23.70
2023-02-20T19:35:12.231Z,23.05
2023-02-20T19:37:39.102Z,35.05
2023-02-20T19:40:09.406Z,18.52
2023-02-20T19:42:36.078Z,26.05
2023-02-20T19:45:02.791Z,19.70
2023-02-20T19:47:29.347Z,23.33
2023-02-20T19:49:55.915Z,20.65
2023-02-20T19:52:22.419Z,21.42
2023-02-20T19:54:49.021Z,17.98
2023-02-20T19:57:15.619Z,18.02
2023-02-20T19:59:43.701Z,19.83
2023-02-20T20:02:11.216Z,16.15
2023-02-20T20:04:37.808Z,18.42
2023-02-20T20:07:04.840Z,19.85
2023-02-20T20:09:38.931Z,18.30
2023-02-20T20:12:29.898Z,17.77
2023-02-20T20:14:56.753Z,19.42
2023-02-20T20:17:23.488Z,25.05
2023-02-20T20:19:59.600Z,22.58
2023-02-20T20:22:28.558Z,26.92
2023-02-20T20:24:55.072Z,34.65
2023-02-20T20:27:23.422Z,34.33
2023-02-20T20:29:51.285Z,35.88
2023-02-20T20:32:19.725Z,50.47
2023-02-20T20:34:55.246Z,37.80
2023-02-20T20:37:27.498Z,42.50
2023-02-20T20:39:56.301Z,42.80
2023-02-20T20:42:25.152Z,41.28
2023-02-20T20:44:53.190Z,43.97
2023-02-20T20:47:21.177Z,48.97
2023-02-20T20:49:47.670Z,70.47
2023-02-20T20:52:14.400Z,52.35
2023-02-20T20:54:40.968Z,46.85
2023-02-20T20:57:07.708Z,63.92
2023-02-20T20:59:36.222Z,52.55
2023-02-20T21:02:03.941Z,62.13
2023-02-20T21:04:30.485Z,66.00
2023-02-20T21:06:57.031Z,59.05
2023-02-20T21:09:23.521Z,59.78
2023-02-20T21:11:50.342Z,59.85
2023-02-20T21:14:18.281Z,60.72
2023-02-20T21:16:44.983Z,69.65
2023-02-20T21:19:11.513Z,74.15
2023-02-20T21:21:38.126Z,66.82
2023-02-20T21:24:04.977Z,70.90
2023-02-20T21:26:32.101Z,63.50
2023-02-20T21:28:58.807Z,72.38
2023-02-20T21:31:25.894Z,66.03
2023-02-20T21:33:53.966Z,72.25
2023-02-20T21:36:21.154Z,67.70
2023-02-20T21:38:47.654Z,70.93
2023-02-20T21:41:39.029Z,72.15
2023-02-20T21:44:24.542Z,73.05
2023-02-20T21:46:52.265Z,78.97
2023-02-20T21:49:18.876Z,75.60
2023-02-20T21:51:45.517Z,65.78
2023-02-20T21:54:13.848Z,71.68
2023-02-20T21:56:40.385Z,65.03
2023-02-20T21:59:06.874Z,73.90
2023-02-20T22:01:36.505Z,68.35
2023-02-20T22:04:04.823Z,64.80
2023-02-20T22:06:31.623Z,71.43
2023-02-20T22:09:17.260Z,65.88
2023-02-20T22:12:02.652Z,59.47
2023-02-20T22:14:47.707Z,69.43
2023-02-20T22:17:32.773Z,76.65
2023-02-20T22:20:18.374Z,68.90
2023-02-20T22:23:03.424Z,78.38
2023-02-20T22:25:49.176Z,65.90
2023-02-20T22:28:34.533Z,76.28
2023-02-20T22:31:20.607Z,64.68
2023-02-20T22:34:05.742Z,69.90
2023-02-20T22:36:51.174Z,64.57
2023-02-20T22:39:36.340Z,73.15
2023-02-20T22:42:29.638Z,61.75
2023-02-20T22:45:19.438Z,65.15
2023-02-20T22:48:04.378Z,61.25
2023-02-20T22:50:49.540Z,56.97
2023-02-20T22:53:34.620Z,63.53
2023-02-20T22:56:19.457Z,58.47
2023-02-20T22:59:04.608Z,66.72
2023-02-20T23:01:49.695Z,61.90
2023-02-20T23:04:34.774Z,56.38
2023-02-20T23:07:19.767Z,59.30
2023-02-20T23:10:04.866Z,58.65
2023-02-20T23:12:49.969Z,57.38
2023-02-20T23:15:35.035Z,58.28
2023-02-20T23:18:20.260Z,58.38
2023-02-20T23:21:05.382Z,66.30
2023-02-20T23:23:50.492Z,58.97
2023-02-20T23:26:35.395Z,58.85
2023-02-20T23:29:20.465Z,63.50
2023-02-20T23:32:05.707Z,62.92
2023-02-20T23:34:50.889Z,64.22
2023-02-20T23:37:35.931Z,65.60
2023-02-20T23:40:30.710Z,63.25
2023-02-20T23:43:19.965Z,72.53
2023-02-20T23:46:04.868Z,69.75
2023-02-20T23:48:50.083Z,66.97
2023-02-20T23:51:34.929Z,65.47
2023-02-20T23:54:20.208Z,69.68
2023-02-20T23:57:05.391Z,67.63
2023-02-20T23:59:50.479Z,65.35
